createdAt,value
2022-11-29T00:01:29.893Z,98318.22
2022-11-29T00:03:57.139Z,98309.84
2022-11-29T00:06:28.512Z,98317.94
2022-11-29T00:08:56.733Z,98309.06
2022-11-29T00:11:44.554Z,98304.75
2022-11-29T00:14:13.657Z,98309.34
2022-11-29T00:16:41.100Z,98312.03
2022-11-29T00:19:08.514Z,98313.91
2022-11-29T00:21:35.079Z,98310.94
2022-11-29T00:24:01.636Z,98300.44
2022-11-29T00:26:28.342Z,98305.56
2022-11-29T00:28:55.015Z,98301.78
2022-11-29T00:31:31.267Z,98304.19
2022-11-29T00:33:59.653Z,98298.81
2022-11-29T00:36:26.760Z,98302.59
2022-11-29T00:38:53.544Z,98305.00
2022-11-29T00:41:20.235Z,98300.16
2022-11-29T00:43:46.770Z,98307.16
2022-11-29T00:46:13.323Z,98302.59
2022-11-29T00:48:39.820Z,98303.38
2022-11-29T00:51:06.892Z,98313.06
2022-11-29T00:53:34.518Z,98307.97
2022-11-29T00:56:01.374Z,98315.25
2022-11-29T00:58:28.346Z,98308.78
2022-11-29T01:00:55.959Z,98303.38
2022-11-29T01:03:23.232Z,98313.63
2022-11-29T01:05:50.006Z,98311.19
2022-11-29T01:08:17.264Z,98315.25
2022-11-29T01:10:44.281Z,98319.53
2022-11-29T01:13:11.289Z,98311.47
2022-11-29T01:15:38.055Z,98307.69
2022-11-29T01:18:04.900Z,98313.06
2022-11-29T01:20:31.615Z,98315.78
2022-11-29T01:22:58.436Z,98307.16
2022-11-29T01:25:25.025Z,98315.78
2022-11-29T01:27:51.530Z,98320.63
2022-11-29T01:30:18.113Z,98320.34
2022-11-29T01:32:44.575Z,98323.84
2022-11-29T01:35:11.338Z,98315.78
2022-11-29T01:37:37.878Z,98317.41
2022-11-29T01:40:05.053Z,98325.47
2022-11-29T01:42:34.632Z,98318.47
2022-11-29T01:45:23.614Z,98311.72
2022-11-29T01:47:55.075Z,98322.50
2022-11-29T01:50:22.017Z,98315.25
2022-11-29T01:52:48.911Z,98322.75
2022-11-29T01:55:16.308Z,98317.09
2022-11-29T01:57:43.938Z,98313.59
2022-11-29T02:00:16.522Z,98312.00
2022-11-29T02:02:48.981Z,98308.22
2022-11-29T02:05:18.596Z,98315.22
2022-11-29T02:07:49.834Z,98309.81
2022-11-29T02:10:17.540Z,98314.41
2022-11-29T02:12:51.836Z,98310.38
2022-11-29T02:15:23.399Z,98314.69
2022-11-29T02:17:49.749Z,98313.06
2022-11-29T02:20:31.338Z,98321.16
2022-11-29T02:23:07.282Z,98315.75
2022-11-29T02:25:51.882Z,98319.25
2022-11-29T02:28:46.244Z,98318.47
2022-11-29T02:31:21.776Z,98323.84
2022-11-29T02:34:06.464Z,98323.84
2022-11-29T02:36:57.298Z,98320.34
2022-11-29T02:39:40.967Z,98322.75
2022-11-29T02:42:56.144Z,98320.88
2022-11-29T02:45:56.691Z,98319.53
2022-11-29T02:48:29.186Z,98317.38
2022-11-29T02:51:12.158Z,98317.94
2022-11-29T02:53:53.802Z,98321.16
2022-11-29T02:56:38.794Z,98322.25
2022-11-29T02:59:14.477Z,98324.94
2022-11-29T03:02:02.035Z,98324.94
2022-11-29T03:05:05.684Z,98327.63
2022-11-29T03:07:49.518Z,98326.53
2022-11-29T03:10:48.266Z,98334.63
2022-11-29T03:13:23.797Z,98330.31
2022-11-29T03:16:01.304Z,98331.13
2022-11-29T03:18:37.309Z,98338.94
2022-11-29T03:21:25.965Z,98338.94
2022-11-29T03:24:01.299Z,98338.41
2022-11-29T03:26:40.492Z,98342.69
2022-11-29T03:29:26.940Z,98342.69
2022-11-29T03:32:07.449Z,98349.69
2022-11-29T03:35:01.927Z,98340.81
2022-11-29T03:37:47.804Z,98348.09
2022-11-29T03:40:21.279Z,98343.22
2022-11-29T03:42:59.021Z,98335.69
2022-11-29T03:45:34.852Z,98338.94
2022-11-29T03:48:12.652Z,98344.31
2022-11-29T03:50:43.597Z,98344.88
2022-11-29T03:53:45.038Z,98341.91
2022-11-29T03:56:32.575Z,98345.91
2022-11-29T03:59:12.321Z,98351.03
2022-11-29T04:02:16.654Z,98349.13
2022-11-29T04:05:13.901Z,98355.88
2022-11-29T04:08:00.370Z,98351.84
2022-11-29T04:10:52.651Z,98354.53
2022-11-29T04:13:46.553Z,98352.63
2022-11-29T04:16:34.814Z,98360.16
2022-11-29T04:19:42.171Z,98357.22
2022-11-29T04:22:21.928Z,98363.94
2022-11-29T04:25:13.571Z,98365.81
2022-11-29T04:28:06.380Z,98368.25
2022-11-29T04:31:02.235Z,98362.03
2022-11-29T04:34:06.491Z,98372.81
2022-11-29T04:36:59.796Z,98379.00
2022-11-29T04:39:58.644Z,98377.94
2022-11-29T04:42:59.254Z,98374.44
2022-11-29T04:45:44.626Z,98376.84
2022-11-29T04:48:46.656Z,98374.16
2022-11-29T04:51:31.813Z,98375.78
2022-11-29T04:54:27.210Z,98384.13
2022-11-29T04:57:17.711Z,98379.81
2022-11-29T05:00:02.566Z,98380.34
2022-11-29T05:02:46.730Z,98384.94
2022-11-29T05:05:13.345Z,98385.72
2022-11-29T05:07:49.210Z,98382.78
2022-11-29T05:11:04.070Z,98386.28
2022-11-29T05:13:39.398Z,98394.38
2022-11-29T05:16:20.794Z,98392.22
2022-11-29T05:18:58.380Z,98393.28
2022-11-29T05:21:27.833Z,98391.41
2022-11-29T05:23:57.378Z,98404.06
2022-11-29T05:26:47.148Z,98395.97
2022-11-29T05:29:39.130Z,98401.09
2022-11-29T05:32:14.674Z,98407.56
2022-11-29T05:34:41.112Z,98402.97
2022-11-29T05:37:16.970Z,98410.25
2022-11-29T05:40:09.418Z,98412.41
2022-11-29T05:43:01.807Z,98413.22
2022-11-29T05:45:38.952Z,98411.59
2022-11-29T05:48:28.677Z,98416.72
2022-11-29T05:51:27.800Z,98410.50
2022-11-29T05:54:13.042Z,98412.97
2022-11-29T05:57:03.242Z,98411.31
2022-11-29T05:59:30.949Z,98416.47
2022-11-29T06:02:06.172Z,98422.66
2022-11-29T06:04:54.871Z,98423.47
2022-11-29T06:07:38.995Z,98419.69
2022-11-29T06:10:13.703Z,98426.16
2022-11-29T06:12:42.464Z,98419.41
2022-11-29T06:15:57.408Z,98427.25
2022-11-29T06:18:30.120Z,98433.69
2022-11-29T06:21:19.404Z,98429.38
2022-11-29T06:23:48.827Z,98441.75
2022-11-29T06:26:36.679Z,98440.97
2022-11-29T06:29:36.663Z,98447.16
2022-11-29T06:32:10.736Z,98447.72
2022-11-29T06:34:56.546Z,98450.94
2022-11-29T06:38:09.891Z,98457.41
2022-11-29T06:40:36.679Z,98448.78
2022-11-29T06:43:03.676Z,98461.19
2022-11-29T06:45:30.593Z,98456.31
2022-11-29T06:48:03.846Z,98457.94
2022-11-29T06:50:53.108Z,98452.53
2022-11-29T06:53:35.928Z,98461.19
2022-11-29T06:56:16.683Z,98457.69
2022-11-29T06:59:00.079Z,98473.59
2022-11-29T07:01:43.672Z,98469.28
2022-11-29T07:04:28.821Z,98463.31
2022-11-29T07:06:55.610Z,98478.44
2022-11-29T07:09:31.189Z,98470.34
2022-11-29T07:11:57.992Z,98486.53
2022-11-29T07:14:24.828Z,98483.84
2022-11-29T07:17:12.873Z,98489.22
2022-11-29T07:20:18.059Z,98479.50
2022-11-29T07:23:05.738Z,98488.13
2022-11-29T07:25:43.315Z,98495.16
2022-11-29T07:28:31.219Z,98497.31
2022-11-29T07:31:25.728Z,98495.66
2022-11-29T07:34:16.388Z,98501.06
2022-11-29T07:37:07.990Z,98502.94
2022-11-29T07:39:48.187Z,98502.69
2022-11-29T07:42:25.923Z,98495.13
2022-11-29T07:45:05.860Z,98499.44
2022-11-29T07:47:35.952Z,98503.75
2022-11-29T07:50:03.700Z,98508.34
2022-11-29T07:52:30.226Z,98514.53
2022-11-29T07:54:56.868Z,98507.28
2022-11-29T07:57:23.264Z,98512.69
2022-11-29T07:59:49.879Z,98510.22
2022-11-29T08:02:36.852Z,98514.53
2022-11-29T08:05:04.161Z,98513.47
2022-11-29T08:07:32.221Z,98508.09
2022-11-29T08:09:59.409Z,98510.22
2022-11-29T08:12:26.393Z,98513.47
2022-11-29T08:14:53.106Z,98518.06
2022-11-29T08:17:20.253Z,98515.09
2022-11-29T08:19:46.764Z,98517.22
2022-11-29T08:22:13.488Z,98524.78
2022-11-29T08:24:40.145Z,98523.72
2022-11-29T08:27:06.801Z,98531.53
2022-11-29T08:29:33.871Z,98524.50
2022-11-29T08:32:00.567Z,98523.72
2022-11-29T08:34:30.453Z,98533.41
2022-11-29T08:36:57.064Z,98529.63
2022-11-29T08:39:23.767Z,98524.78
2022-11-29T08:41:50.456Z,98529.91
2022-11-29T08:47:26.105Z,98530.72
2022-11-29T08:50:01.328Z,98538.00
2022-11-29T08:52:50.679Z,98540.94
2022-11-29T08:55:21.276Z,98538.81
2022-11-29T08:57:48.402Z,98535.56
2022-11-29T09:00:16.661Z,98543.13
2022-11-29T09:02:43.407Z,98543.13
2022-11-29T09:05:11.224Z,98549.03
2022-11-29T09:07:38.103Z,98545.78
2022-11-29T09:10:08.102Z,98558.47
2022-11-29T09:12:39.713Z,98552.28
2022-11-29T09:15:09.087Z,98552.28
2022-11-29T09:17:35.574Z,98561.44
2022-11-29T09:20:03.184Z,98561.44
2022-11-29T09:22:29.823Z,98562.53
2022-11-29T09:24:56.314Z,98551.75
2022-11-29T09:27:22.826Z,98554.41
2022-11-29T09:29:49.232Z,98561.97
2022-11-29T09:32:15.619Z,98560.09
2022-11-29T09:34:42.414Z,98568.97
2022-11-29T09:37:09.022Z,98567.91
2022-11-29T09:39:35.526Z,98574.94
2022-11-29T09:42:54.537Z,98572.25
2022-11-29T09:45:30.059Z,98571.16
2022-11-29T09:48:08.361Z,98590.84
2022-11-29T09:50:37.474Z,98581.66
2022-11-29T09:53:34.261Z,98585.44
2022-11-29T09:56:15.891Z,98587.34
2022-11-29T09:58:49.798Z,98586.25
2022-11-29T10:01:24.676Z,98581.94
2022-11-29T10:03:54.329Z,98587.84
2022-11-29T10:06:32.018Z,98584.34
2022-11-29T10:09:05.950Z,98587.06
2022-11-29T10:11:43.211Z,98584.06
2022-11-29T10:14:21.143Z,98595.41
2022-11-29T10:17:00.799Z,98595.66
2022-11-29T10:19:36.742Z,98598.91
2022-11-29T10:22:18.102Z,98602.16
2022-11-29T10:24:52.363Z,98593.25
2022-11-29T10:27:23.100Z,98588.94
2022-11-29T10:29:51.250Z,98591.09
2022-11-29T10:32:21.144Z,98591.09
2022-11-29T10:34:49.296Z,98586.50
2022-11-29T10:37:22.317Z,98590.56
2022-11-29T10:40:02.064Z,98585.97
2022-11-29T10:42:47.819Z,98595.41
2022-11-29T10:45:27.356Z,98584.63
2022-11-29T10:47:58.594Z,98591.09
2022-11-29T10:50:30.733Z,98592.44
2022-11-29T10:53:12.459Z,98598.63
2022-11-29T10:55:43.942Z,98591.63
2022-11-29T10:58:23.385Z,98591.34
2022-11-29T11:01:00.373Z,98592.72
2022-11-29T11:03:36.129Z,98587.56
2022-11-29T11:06:11.030Z,98594.84
2022-11-29T11:08:41.119Z,98591.88
2022-11-29T11:11:09.127Z,98595.94
2022-11-29T11:13:36.714Z,98595.66
2022-11-29T11:16:19.056Z,98589.47
2022-11-29T11:18:49.190Z,98590.53
2022-11-29T11:21:20.002Z,98593.75
2022-11-29T11:23:57.180Z,98589.47
2022-11-29T11:26:25.539Z,98587.28
2022-11-29T11:29:00.304Z,98595.13
2022-11-29T11:31:34.432Z,98596.47
2022-11-29T11:34:34.378Z,98589.72
2022-11-29T11:37:16.117Z,98594.31
2022-11-29T11:39:44.032Z,98599.72
2022-11-29T11:42:32.484Z,98602.66
2022-11-29T11:45:01.016Z,98598.06
2022-11-29T11:47:30.881Z,98601.06
2022-11-29T11:50:04.490Z,98599.72
2022-11-29T11:52:40.193Z,98599.72
2022-11-29T11:55:32.375Z,98602.66
2022-11-29T11:58:09.017Z,98606.44
2022-11-29T12:04:03.320Z,98611.03
2022-11-29T12:06:46.365Z,98611.03
2022-11-29T12:09:40.642Z,98612.94
2022-11-29T12:12:15.540Z,98616.97
2022-11-29T12:15:06.811Z,98616.72
2022-11-29T12:17:36.498Z,98618.03
2022-11-29T12:20:21.693Z,98623.44
2022-11-29T12:23:07.778Z,98616.44
2022-11-29T12:25:42.396Z,98617.53
2022-11-29T12:28:18.611Z,98630.97
2022-11-29T12:31:03.168Z,98622.88
2022-11-29T12:33:37.742Z,98630.97
2022-11-29T12:36:19.145Z,98632.34
2022-11-29T12:38:59.391Z,98637.75
2022-11-29T12:41:54.339Z,98635.59
2022-11-29T12:44:28.836Z,98636.66
2022-11-29T12:47:37.935Z,98636.41
2022-11-29T12:50:19.708Z,98644.50
2022-11-29T12:53:01.595Z,98629.13
2022-11-29T12:56:13.589Z,98634.50
2022-11-29T12:58:53.300Z,98635.84
2022-11-29T13:01:40.758Z,98637.22
2022-11-29T13:04:22.475Z,98634.50
2022-11-29T13:06:56.428Z,98631.81
2022-11-29T13:09:27.137Z,98636.13
2022-11-29T13:12:06.138Z,98640.19
2022-11-29T13:14:47.873Z,98644.78
2022-11-29T13:17:33.136Z,98644.78
2022-11-29T13:20:28.527Z,98650.41
2022-11-29T13:23:39.088Z,98647.72
2022-11-29T13:26:13.207Z,98654.75
2022-11-29T13:28:43.774Z,98651.50
2022-11-29T13:31:17.947Z,98636.13
2022-11-29T13:34:16.833Z,98642.31
2022-11-29T13:37:19.941Z,98652.31
2022-11-29T13:40:05.605Z,98648.81
2022-11-29T13:42:45.247Z,98660.41
2022-11-29T13:45:47.442Z,98656.34
2022-11-29T13:48:29.234Z,98659.88
2022-11-29T13:51:19.034Z,98658.50
2022-11-29T13:53:49.080Z,98666.59
2022-11-29T13:56:26.225Z,98661.75
2022-11-29T13:58:54.518Z,98660.69
2022-11-29T14:01:26.006Z,98668.75
2022-11-29T14:04:22.475Z,98672.53
2022-11-29T14:06:50.397Z,98682.78
2022-11-29T14:09:26.764Z,98680.59
2022-11-29T14:12:03.258Z,98674.69
2022-11-29T14:14:51.697Z,98678.47
2022-11-29T14:17:42.973Z,98679.53
2022-11-29T14:20:33.712Z,98679.28
2022-11-29T14:23:06.502Z,98678.47
2022-11-29T14:25:55.457Z,98675.75
2022-11-29T14:28:22.715Z,98676.84
2022-11-29T14:31:01.810Z,98678.97
2022-11-29T14:33:31.958Z,98682.75
2022-11-29T14:36:13.443Z,98685.72
2022-11-29T14:38:49.575Z,98685.72
2022-11-29T14:41:52.381Z,98688.16
2022-11-29T14:44:26.802Z,98686.53
2022-11-29T14:47:06.735Z,98687.34
2022-11-29T14:49:57.577Z,98680.34
2022-11-29T14:52:28.816Z,98684.38
2022-11-29T14:55:17.278Z,98683.31
2022-11-29T14:57:54.957Z,98693.03
2022-11-29T15:00:27.157Z,98696.00
2022-11-29T15:03:11.006Z,98697.31
2022-11-29T15:05:41.499Z,98698.94
2022-11-29T15:08:28.466Z,98704.34
2022-11-29T15:11:26.072Z,98702.16
2022-11-29T15:14:13.165Z,98707.03
2022-11-29T15:16:58.121Z,98711.34
2022-11-29T15:19:46.558Z,98709.72
2022-11-29T15:22:20.250Z,98713.47
2022-11-29T15:25:14.036Z,98715.91
2022-11-29T15:27:57.468Z,98711.59
2022-11-29T15:30:28.909Z,98717.78
2022-11-29T15:32:56.998Z,98713.47
2022-11-29T15:35:23.626Z,98717.78
2022-11-29T15:37:51.656Z,98719.94
2022-11-29T15:40:31.448Z,98718.06
2022-11-29T15:43:13.946Z,98725.06
2022-11-29T15:45:46.107Z,98725.88
2022-11-29T15:48:24.541Z,98724.25
2022-11-29T15:51:02.284Z,98724.78
2022-11-29T15:53:40.324Z,98735.56
2022-11-29T15:56:38.423Z,98738.00
2022-11-29T15:59:15.991Z,98739.06
2022-11-29T16:01:46.339Z,98740.38
2022-11-29T16:04:20.011Z,98745.78
2022-11-29T16:06:48.992Z,98749.56
2022-11-29T16:09:19.911Z,98745.25
2022-11-29T16:11:48.245Z,98747.94
2022-11-29T16:14:20.597Z,98747.94
2022-11-29T16:16:52.325Z,98754.94
2022-11-29T16:19:34.255Z,98754.94
2022-11-29T16:22:12.759Z,98760.34
2022-11-29T16:24:47.212Z,98757.09
2022-11-29T16:27:14.721Z,98755.47
2022-11-29T16:29:48.194Z,98754.38
2022-11-29T16:32:26.208Z,98760.03
2022-11-29T16:34:53.912Z,98763.00
2022-11-29T16:37:20.298Z,98763.25
2022-11-29T16:39:49.881Z,98769.44
2022-11-29T16:42:24.854Z,98770.50
2022-11-29T16:45:06.022Z,98767.81
2022-11-29T16:47:48.306Z,98766.75
2022-11-29T16:50:21.371Z,98769.44
2022-11-29T16:52:53.461Z,98765.69
2022-11-29T16:55:23.045Z,98772.13
2022-11-29T16:57:49.832Z,98767.81
2022-11-29T17:00:45.904Z,98766.75
2022-11-29T17:03:12.321Z,98773.22
2022-11-29T17:05:44.429Z,98774.28
2022-11-29T17:08:11.281Z,98772.13
2022-11-29T17:10:37.756Z,98781.03
2022-11-29T17:13:07.078Z,98772.13
2022-11-29T17:15:33.697Z,98779.13
2022-11-29T17:18:00.612Z,98779.13
2022-11-29T17:20:27.190Z,98781.03
2022-11-29T17:22:53.581Z,98787.22
2022-11-29T17:25:19.999Z,98785.84
2022-11-29T17:27:46.409Z,98785.03
2022-11-29T17:30:13.374Z,98788.25
2022-11-29T17:32:39.874Z,98788.25
2022-11-29T17:35:06.848Z,98790.97
2022-11-29T17:37:33.238Z,98790.16
2022-11-29T17:39:59.652Z,98793.66
2022-11-29T17:42:26.211Z,98796.34
2022-11-29T17:44:52.723Z,98797.97
2022-11-29T17:47:19.099Z,98802.28
2022-11-29T17:49:46.224Z,98801.47
2022-11-29T17:52:12.894Z,98799.03
2022-11-29T17:54:39.373Z,98802.81
2022-11-29T17:57:05.893Z,98796.84
2022-11-29T17:59:32.398Z,98800.63
2022-11-29T18:01:58.827Z,98793.88
2022-11-29T18:04:25.381Z,98803.59
2022-11-29T18:06:51.862Z,98805.75
2022-11-29T18:09:19.432Z,98798.97
2022-11-29T18:11:49.025Z,98806.00
2022-11-29T18:14:19.224Z,98808.69
2022-11-29T18:16:45.923Z,98807.88
2022-11-29T18:19:15.564Z,98807.06
2022-11-29T18:21:42.086Z,98814.59
2022-11-29T18:24:09.225Z,98825.38
2022-11-29T18:26:36.999Z,98816.47
2022-11-29T18:29:05.231Z,98816.22
2022-11-29T18:31:34.286Z,98816.22
2022-11-29T18:34:03.354Z,98822.13
2022-11-29T18:36:32.213Z,98826.72
2022-11-29T18:39:04.974Z,98831.28
2022-11-29T18:41:31.939Z,98827.78
2022-11-29T18:44:03.631Z,98837.75
2022-11-29T18:46:36.083Z,98833.41
2022-11-29T18:49:14.012Z,98842.56
2022-11-29T18:51:43.406Z,98842.00
2022-11-29T18:54:10.678Z,98847.41
2022-11-29T18:56:38.488Z,98845.78
2022-11-29T18:59:08.413Z,98841.47
2022-11-29T19:01:37.843Z,98843.09
2022-11-29T19:04:04.445Z,98839.84
2022-11-29T19:06:39.223Z,98840.66
2022-11-29T19:09:09.684Z,98841.97
2022-11-29T19:11:36.117Z,98835.50
2022-11-29T19:14:11.320Z,98846.50
2022-11-29T19:16:39.935Z,98849.19
2022-11-29T19:19:06.545Z,98840.31
2022-11-29T19:21:34.640Z,98836.00
2022-11-29T19:24:03.918Z,98843.53
2022-11-29T19:26:31.698Z,98837.34
2022-11-29T19:29:00.185Z,98833.03
2022-11-29T19:31:27.345Z,98831.66
2022-11-29T19:33:54.849Z,98829.22
2022-11-29T19:36:26.547Z,98824.59
2022-11-29T19:38:54.525Z,98829.69
2022-11-29T19:41:22.639Z,98834.53
2022-11-29T19:43:49.928Z,98841.53
2022-11-29T19:46:19.423Z,98837.78
2022-11-29T19:48:46.269Z,98840.19
2022-11-29T19:51:14.332Z,98848.81
2022-11-29T19:53:40.671Z,98843.44
2022-11-29T19:56:10.344Z,98855.34
2022-11-29T19:58:36.874Z,98856.94
2022-11-29T20:01:08.378Z,98848.88
2022-11-29T20:03:35.406Z,98864.75
2022-11-29T20:06:02.560Z,98858.31
2022-11-29T20:08:29.613Z,98867.22
2022-11-29T20:10:56.398Z,98865.88
2022-11-29T20:13:22.808Z,98872.88
2022-11-29T20:15:49.310Z,98865.88
2022-11-29T20:18:16.056Z,98867.78
2022-11-29T20:20:42.568Z,98859.97
2022-11-29T20:23:08.991Z,98854.81
2022-11-29T20:25:36.408Z,98861.25
2022-11-29T20:28:04.100Z,98862.88
2022-11-29T20:30:30.485Z,98866.66
2022-11-29T20:32:57.027Z,98870.97
2022-11-29T20:35:23.821Z,98865.56
2022-11-29T20:38:05.510Z,98870.97
2022-11-29T20:41:02.486Z,98875.78
2022-11-29T20:43:37.686Z,98866.09
2022-11-29T20:46:04.552Z,98864.47
2022-11-29T20:48:31.305Z,98870.13
2022-11-29T20:51:01.125Z,98860.16
2022-11-29T20:53:35.143Z,98864.97
2022-11-29T20:56:02.040Z,98861.75
2022-11-29T20:58:28.474Z,98869.81
2022-11-29T21:00:55.431Z,98867.13
2022-11-29T21:03:23.158Z,98871.69
2022-11-29T21:05:50.491Z,98872.50
2022-11-29T21:08:20.826Z,98875.75
2022-11-29T21:10:48.607Z,98877.41
2022-11-29T21:13:15.977Z,98877.41
2022-11-29T21:15:43.227Z,98872.56
2022-11-29T21:18:25.010Z,98880.09
2022-11-29T21:21:02.799Z,98878.50
2022-11-29T21:23:32.160Z,98878.50
2022-11-29T21:26:10.577Z,98880.09
2022-11-29T21:28:52.182Z,98879.31
2022-11-29T21:31:19.218Z,98874.19
2022-11-29T21:33:45.896Z,98872.81
2022-11-29T21:36:13.158Z,98874.13
2022-11-29T21:38:39.894Z,98877.41
2022-11-29T21:41:06.324Z,98872.50
2022-11-29T21:44:04.392Z,98865.50
2022-11-29T21:46:19.271Z,98878.41
2022-11-29T21:48:45.767Z,98881.34
2022-11-29T21:51:12.321Z,98880.53
2022-11-29T21:53:39.912Z,98877.84
2022-11-29T21:56:08.812Z,98878.91
2022-11-29T21:58:37.614Z,98876.47
2022-11-29T22:01:11.619Z,98884.81
2022-11-29T22:03:39.306Z,98884.81
2022-11-29T22:06:09.397Z,98879.44
2022-11-29T22:08:38.917Z,98885.31
2022-11-29T22:11:16.701Z,98891.50
2022-11-29T22:14:02.766Z,98884.25
2022-11-29T22:16:30.305Z,98885.31
2022-11-29T22:18:56.926Z,98887.19
2022-11-29T22:21:23.500Z,98900.97
2022-11-29T22:23:52.026Z,98903.66
2022-11-29T22:26:18.512Z,98897.22
2022-11-29T22:28:44.949Z,98906.91
2022-11-29T22:31:12.553Z,98903.41
2022-11-29T22:33:39.342Z,98910.13
2022-11-29T22:36:08.707Z,98891.78
2022-11-29T22:38:35.687Z,98899.84
2022-11-29T22:41:03.560Z,98902.28
2022-11-29T22:43:31.362Z,98901.47
2022-11-29T22:46:06.062Z,98894.19
2022-11-29T22:48:38.195Z,98884.22
2022-11-29T22:51:16.767Z,98896.06
2022-11-29T22:53:55.355Z,98896.06
2022-11-29T22:56:27.528Z,98896.28
2022-11-29T22:58:54.428Z,98893.06
2022-11-29T23:01:23.405Z,98893.88
2022-11-29T23:03:54.103Z,98894.66
2022-11-29T23:06:35.737Z,98893.56
2022-11-29T23:09:16.315Z,98896.25
2022-11-29T23:11:45.134Z,98897.63
2022-11-29T23:14:12.396Z,98898.69
2022-11-29T23:16:38.944Z,98902.47
2022-11-29T23:19:05.675Z,98899.78
2022-11-29T23:21:35.181Z,98892.75
2022-11-29T23:24:01.929Z,98900.25
2022-11-29T23:26:36.269Z,98898.91
2022-11-29T23:29:04.005Z,98897.56
2022-11-29T23:31:30.761Z,98899.44
2022-11-29T23:33:57.517Z,98898.63
2022-11-29T23:36:23.979Z,98894.88
2022-11-29T23:38:50.424Z,98896.50
2022-11-29T23:41:17.593Z,98903.53
2022-11-29T23:43:43.970Z,98891.13
2022-11-29T23:46:19.887Z,98892.19
2022-11-29T23:48:46.455Z,98890.56
2022-11-29T23:51:14.007Z,98893.81
2022-11-29T23:53:41.040Z,98894.88
2022-11-29T23:56:15.837Z,98892.19
2022-11-29T23:58:43.370Z,98897.56
